sensor_id;sensor_type;location;lat;lon;timestamp;pressure;altitude;pressure_sealevel;temperature;humidity
27429;BME280;14881;48.092;11.574;2022-07-09T00:00:05;96530.25;;;11.24;100.00
27429;BME280;14881;48.092;11.574;2022-07-09T00:02:33;96520.44;;;11.23;100.00
27429;BME280;14881;48.092;11.574;2022-07-09T00:05:02;96531.59;;;11.27;100.00
27429;BME280;14881;48.092;11.574;2022-07-09T00:07:32;96518.81;;;11.32;100.00
27429;BME280;14881;48.092;11.574;2022-07-09T00:10:00;96516.91;;;11.33;100.00
27429;BME280;14881;48.092;11.574;2022-07-09T00:12:28;96519.94;;;11.36;100.00
27429;BME280;14881;48.092;11.574;2022-07-09T00:14:56;96517.47;;;11.35;100.00
27429;BME280;14881;48.092;11.574;2022-07-09T00:17:25;96517.75;;;11.38;100.00
27429;BME280;14881;48.092;11.574;2022-07-09T00:19:53;96517.22;;;11.41;100.00
27429;BME280;14881;48.092;11.574;2022-07-09T00:22:20;96512.59;;;11.42;100.00
27429;BME280;14881;48.092;11.574;2022-07-09T00:24:48;96511.22;;;11.39;100.00
27429;BME280;14881;48.092;11.574;2022-07-09T00:27:16;96501.16;;;11.40;100.00
27429;BME280;14881;48.092;11.574;2022-07-09T00:29:43;96497.63;;;11.39;100.00
27429;BME280;14881;48.092;11.574;2022-07-09T00:32:11;96493.56;;;11.42;100.00
27429;BME280;14881;48.092;11.574;2022-07-09T00:34:40;96497.09;;;11.42;100.00
27429;BME280;14881;48.092;11.574;2022-07-09T00:37:08;96494.63;;;11.46;100.00
27429;BME280;14881;48.092;11.574;2022-07-09T00:39:36;96491.34;;;11.44;100.00
27429;BME280;14881;48.092;11.574;2022-07-09T00:42:04;96491.34;;;11.44;100.00
27429;BME280;14881;48.092;11.574;2022-07-09T00:44:33;96480.19;;;11.45;100.00
27429;BME280;14881;48.092;11.574;2022-07-09T00:47:01;96484.81;;;11.45;100.00
27429;BME280;14881;48.092;11.574;2022-07-09T00:49:29;96492.72;;;11.46;100.00
27429;BME280;14881;48.092;11.574;2022-07-09T00:52:00;96498.16;;;11.46;100.00
27429;BME280;14881;48.092;11.574;2022-07-09T00:54:28;96490.00;;;11.46;100.00
27429;BME280;14881;48.092;11.574;2022-07-09T00:56:56;96481.28;;;11.44;100.00
27429;BME280;14881;48.092;11.574;2022-07-09T00:59:24;96484.56;;;11.41;100.00
27429;BME280;14881;48.092;11.574;2022-07-09T01:01:52;96488.09;;;11.42;100.00
27429;BME280;14881;48.092;11.574;2022-07-09T01:04:20;96484.28;;;11.38;100.00
27429;BME280;14881;48.092;11.574;2022-07-09T01:06:48;96486.44;;;11.31;100.00
27429;BME280;14881;48.092;11.574;2022-07-09T01:09:17;96480.97;;;11.26;100.00
27429;BME280;14881;48.092;11.574;2022-07-09T01:11:46;96481.81;;;11.21;100.00
27429;BME280;14881;48.092;11.574;2022-07-09T01:14:14;96472.00;;;11.15;100.00
27429;BME280;14881;48.092;11.574;2022-07-09T01:16:42;96474.19;;;11.18;100.00
27429;BME280;14881;48.092;11.574;2022-07-09T01:19:10;96472.84;;;11.21;100.00
27429;BME280;14881;48.092;11.574;2022-07-09T01:21:39;96470.66;;;11.23;100.00
27429;BME280;14881;48.092;11.574;2022-07-09T01:24:07;96469.59;;;11.24;100.00
27429;BME280;14881;48.092;11.574;2022-07-09T01:26:35;96468.22;;;11.21;100.00
27429;BME280;14881;48.092;11.574;2022-07-09T01:29:03;96463.31;;;11.18;100.00
27429;BME280;14881;48.092;11.574;2022-07-09T01:31:31;96466.56;;;11.15;100.00
27429;BME280;14881;48.092;11.574;2022-07-09T01:33:59;96464.09;;;11.13;100.00
27429;BME280;14881;48.092;11.574;2022-07-09T01:36:26;96469.28;;;11.15;100.00
27429;BME280;14881;48.092;11.574;2022-07-09T01:38:55;96471.97;;;11.10;100.00
27429;BME280;14881;48.092;11.574;2022-07-09T01:41:23;96466.28;;;11.11;100.00
27429;BME280;14881;48.092;11.574;2022-07-09T01:43:51;96460.84;;;11.11;100.00
27429;BME280;14881;48.092;11.574;2022-07-09T01:46:19;96460.00;;;11.11;100.00
27429;BME280;14881;48.092;11.574;2022-07-09T01:48:46;96456.75;;;11.09;100.00
27429;BME280;14881;48.092;11.574;2022-07-09T01:51:14;96454.03;;;11.09;100.00
27429;BME280;14881;48.092;11.574;2022-07-09T01:53:42;96456.22;;;11.07;100.00
27429;BME280;14881;48.092;11.574;2022-07-09T01:56:13;96453.19;;;11.08;100.00
27429;BME280;14881;48.092;11.574;2022-07-09T01:58:40;96439.91;;;11.07;100.00
27429;BME280;14881;48.092;11.574;2022-07-09T02:01:11;96445.06;;;11.08;100.00
27429;BME280;14881;48.092;11.574;2022-07-09T02:03:39;96442.06;;;11.10;100.00
27429;BME280;14881;48.092;11.574;2022-07-09T02:06:07;96436.63;;;11.10;100.00
27429;BME280;14881;48.092;11.574;2022-07-09T02:08:35;96435.28;;;11.12;100.00
27429;BME280;14881;48.092;11.574;2022-07-09T02:11:03;96441.25;;;11.14;100.00
27429;BME280;14881;48.092;11.574;2022-07-09T02:13:33;96432.56;;;11.18;100.00
27429;BME280;14881;48.092;11.574;2022-07-09T02:16:01;96435.03;;;11.24;100.00
27429;BME280;14881;48.092;11.574;2022-07-09T02:18:29;96439.38;;;11.25;100.00
27429;BME280;14881;48.092;11.574;2022-07-09T02:20:57;96429.28;;;11.26;100.00
27429;BME280;14881;48.092;11.574;2022-07-09T02:23:24;96428.50;;;11.30;100.00
27429;BME280;14881;48.092;11.574;2022-07-09T02:25:52;96430.13;;;11.31;100.00
27429;BME280;14881;48.092;11.574;2022-07-09T02:28:20;96424.97;;;11.35;100.00
27429;BME280;14881;48.092;11.574;2022-07-09T02:30:49;96425.25;;;11.38;100.00
27429;BME280;14881;48.092;11.574;2022-07-09T02:33:17;96426.59;;;11.41;100.00
27429;BME280;14881;48.092;11.574;2022-07-09T02:35:45;96424.41;;;11.43;100.00
27429;BME280;14881;48.092;11.574;2022-07-09T02:38:13;96411.63;;;11.48;100.00
27429;BME280;14881;48.092;11.574;2022-07-09T02:40:41;96409.72;;;11.54;100.00
27429;BME280;14881;48.092;11.574;2022-07-09T02:43:09;96413.00;;;11.56;100.00
27429;BME280;14881;48.092;11.574;2022-07-09T02:45:37;96414.63;;;11.57;100.00
27429;BME280;14881;48.092;11.574;2022-07-09T02:48:06;96402.66;;;11.58;100.00
27429;BME280;14881;48.092;11.574;2022-07-09T02:50:34;96405.06;;;11.65;100.00
27429;BME280;14881;48.092;11.574;2022-07-09T02:53:01;96405.09;;;11.70;100.00
27429;BME280;14881;48.092;11.574;2022-07-09T02:55:29;96401.81;;;11.73;100.00
27429;BME280;14881;48.092;11.574;2022-07-09T02:57:57;96406.75;;;11.76;100.00
27429;BME280;14881;48.092;11.574;2022-07-09T03:00:25;96402.38;;;11.80;100.00
27429;BME280;14881;48.092;11.574;2022-07-09T03:02:53;96403.44;;;11.84;100.00
27429;BME280;14881;48.092;11.574;2022-07-09T03:05:22;96396.09;;;11.90;100.00
27429;BME280;14881;48.092;11.574;2022-07-09T03:07:50;96391.75;;;11.94;100.00
27429;BME280;14881;48.092;11.574;2022-07-09T03:10:17;96398.78;;;12.00;100.00
27429;BME280;14881;48.092;11.574;2022-07-09T03:12:45;96390.34;;;11.96;100.00
27429;BME280;14881;48.092;11.574;2022-07-09T03:15:13;96399.59;;;11.95;100.00
27429;BME280;14881;48.092;11.574;2022-07-09T03:17:43;96403.69;;;12.03;100.00
27429;BME280;14881;48.092;11.574;2022-07-09T03:20:11;96409.41;;;12.06;100.00
27429;BME280;14881;48.092;11.574;2022-07-09T03:22:41;96403.91;;;12.16;100.00
27429;BME280;14881;48.092;11.574;2022-07-09T03:25:09;96405.00;;;12.20;100.00
27429;BME280;14881;48.092;11.574;2022-07-09T03:27:37;96411.81;;;12.23;100.00
27429;BME280;14881;48.092;11.574;2022-07-09T03:30:06;96403.91;;;12.22;100.00
27429;BME280;14881;48.092;11.574;2022-07-09T03:32:33;96409.88;;;12.29;100.00
27429;BME280;14881;48.092;11.574;2022-07-09T03:35:01;96403.28;;;12.40;100.00
27429;BME280;14881;48.092;11.574;2022-07-09T03:37:29;96405.72;;;12.46;100.00
27429;BME280;14881;48.092;11.574;2022-07-09T03:39:58;96406.81;;;12.45;100.00
27429;BME280;14881;48.092;11.574;2022-07-09T03:42:26;96410.59;;;12.54;100.00
27429;BME280;14881;48.092;11.574;2022-07-09T03:44:54;96408.13;;;12.58;100.00
27429;BME280;14881;48.092;11.574;2022-07-09T03:47:22;96413.84;;;12.62;100.00
27429;BME280;14881;48.092;11.574;2022-07-09T03:49:49;96413.31;;;12.60;100.00
27429;BME280;14881;48.092;11.574;2022-07-09T03:52:17;96417.13;;;12.59;100.00
27429;BME280;14881;48.092;11.574;2022-07-09T03:54:48;96414.94;;;12.61;100.00
27429;BME280;14881;48.092;11.574;2022-07-09T03:57:17;96411.13;;;12.62;100.00
27429;BME280;14881;48.092;11.574;2022-07-09T03:59:45;96416.03;;;12.60;100.00
27429;BME280;14881;48.092;11.574;2022-07-09T04:02:13;96423.13;;;12.61;100.00
27429;BME280;14881;48.092;11.574;2022-07-09T04:04:41;96423.66;;;12.63;100.00
27429;BME280;14881;48.092;11.574;2022-07-09T04:07:10;96429.09;;;12.63;100.00
27429;BME280;14881;48.092;11.574;2022-07-09T04:09:37;96430.97;;;12.67;100.00
27429;BME280;14881;48.092;11.574;2022-07-09T04:12:06;96432.34;;;12.65;100.00
27429;BME280;14881;48.092;11.574;2022-07-09T04:14:35;96432.66;;;12.63;100.00
27429;BME280;14881;48.092;11.574;2022-07-09T04:17:03;96429.09;;;12.63;100.00
27429;BME280;14881;48.092;11.574;2022-07-09T04:19:32;96427.41;;;12.72;100.00
27429;BME280;14881;48.092;11.574;2022-07-09T04:22:00;96427.66;;;12.75;100.00
27429;BME280;14881;48.092;11.574;2022-07-09T04:24:28;96423.03;;;12.81;100.00
27429;BME280;14881;48.092;11.574;2022-07-09T04:26:59;96435.78;;;12.85;100.00
27429;BME280;14881;48.092;11.574;2022-07-09T04:29:27;96429.53;;;12.85;100.00
27429;BME280;14881;48.092;11.574;2022-07-09T04:31:56;96437.69;;;12.85;100.00
27429;BME280;14881;48.092;11.574;2022-07-09T04:34:24;96427.88;;;12.89;100.00
27429;BME280;14881;48.092;11.574;2022-07-09T04:36:52;96436.31;;;12.93;100.00
27429;BME280;14881;48.092;11.574;2022-07-09T04:39:20;96440.13;;;12.92;100.00
27429;BME280;14881;48.092;11.574;2022-07-09T04:41:49;96433.31;;;12.89;100.00
27429;BME280;14881;48.092;11.574;2022-07-09T04:44:17;96441.78;;;12.87;100.00
27429;BME280;14881;48.092;11.574;2022-07-09T04:46:44;96431.16;;;12.86;100.00
27429;BME280;14881;48.092;11.574;2022-07-09T04:49:13;96433.63;;;12.82;100.00
27429;BME280;14881;48.092;11.574;2022-07-09T04:51:41;96429.84;;;12.78;100.00
27429;BME280;14881;48.092;11.574;2022-07-09T04:54:09;96432.56;;;12.78;100.00
27429;BME280;14881;48.092;11.574;2022-07-09T04:56:37;96432.03;;;12.76;100.00
27429;BME280;14881;48.092;11.574;2022-07-09T04:59:04;96429.31;;;12.76;100.00
27429;BME280;14881;48.092;11.574;2022-07-09T05:01:32;96428.50;;;12.76;100.00
27429;BME280;14881;48.092;11.574;2022-07-09T05:04:00;96436.66;;;12.76;100.00
27429;BME280;14881;48.092;11.574;2022-07-09T05:06:29;96439.94;;;12.78;100.00
27429;BME280;14881;48.092;11.574;2022-07-09T05:08:57;96433.63;;;12.82;100.00
27429;BME280;14881;48.092;11.574;2022-07-09T05:11:25;96433.06;;;12.85;100.00
27429;BME280;14881;48.092;11.574;2022-07-09T05:13:53;96440.66;;;12.94;100.00
27429;BME280;14881;48.092;11.574;2022-07-09T05:16:20;96440.06;;;13.02;100.00
27429;BME280;14881;48.092;11.574;2022-07-09T05:18:48;96435.69;;;13.06;100.00
27429;BME280;14881;48.092;11.574;2022-07-09T05:21:17;96436.19;;;13.13;100.00
27429;BME280;14881;48.092;11.574;2022-07-09T05:23:46;96436.72;;;13.20;100.00
27429;BME280;14881;48.092;11.574;2022-07-09T05:26:14;96438.31;;;13.26;100.00
27429;BME280;14881;48.092;11.574;2022-07-09T05:28:41;96443.47;;;13.33;100.00
27429;BME280;14881;48.092;11.574;2022-07-09T05:31:09;96440.69;;;13.38;100.00
27429;BME280;14881;48.092;11.574;2022-07-09T05:33:57;96443.38;;;13.43;100.00
27429;BME280;14881;48.092;11.574;2022-07-09T05:36:26;96444.72;;;13.50;100.00
27429;BME280;14881;48.092;11.574;2022-07-09T05:38:58;96442.16;;;13.59;100.00
27429;BME280;14881;48.092;11.574;2022-07-09T05:41:27;96443.47;;;13.67;100.00
27429;BME280;14881;48.092;11.574;2022-07-09T05:43:54;96443.91;;;13.79;100.00
27429;BME280;14881;48.092;11.574;2022-07-09T05:46:22;96449.84;;;13.86;100.00
27429;BME280;14881;48.092;11.574;2022-07-09T05:48:50;96442.91;;;13.99;100.00
27429;BME280;14881;48.092;11.574;2022-07-09T05:51:19;96434.06;;;14.07;100.00
27429;BME280;14881;48.092;11.574;2022-07-09T05:53:46;96439.66;;;14.20;100.00
27429;BME280;14881;48.092;11.574;2022-07-09T05:56:16;96446.69;;;14.32;100.00
27429;BME280;14881;48.092;11.574;2022-07-09T05:58:43;96430.19;;;14.42;100.00
27429;BME280;14881;48.092;11.574;2022-07-09T06:01:11;96432.72;;;14.57;100.00
27429;BME280;14881;48.092;11.574;2022-07-09T06:03:40;96436.69;;;14.70;100.00
27429;BME280;14881;48.092;11.574;2022-07-09T06:06:10;96434.63;;;14.80;100.00
27429;BME280;14881;48.092;11.574;2022-07-09T06:08:38;96428.72;;;14.92;100.00
27429;BME280;14881;48.092;11.574;2022-07-09T06:11:05;96431.63;;;15.01;100.00
27429;BME280;14881;48.092;11.574;2022-07-09T06:13:35;96429.66;;;15.06;100.00
27429;BME280;14881;48.092;11.574;2022-07-09T06:16:03;96432.22;;;15.16;100.00
27429;BME280;14881;48.092;11.574;2022-07-09T06:18:31;96436.72;;;15.26;100.00
27429;BME280;14881;48.092;11.574;2022-07-09T06:20:59;96428.16;;;15.32;100.00
27429;BME280;14881;48.092;11.574;2022-07-09T06:23:28;96432.47;;;15.39;100.00
27429;BME280;14881;48.092;11.574;2022-07-09T06:25:55;96434.81;;;15.45;100.00
27429;BME280;14881;48.092;11.574;2022-07-09T06:28:23;96440.19;;;15.55;100.00
27429;BME280;14881;48.092;11.574;2022-07-09T06:30:52;96438.06;;;15.66;100.00
27429;BME280;14881;48.092;11.574;2022-07-09T06:33:20;96438.72;;;15.77;100.00
27429;BME280;14881;48.092;11.574;2022-07-09T06:35:48;96434.47;;;15.84;100.00
27429;BME280;14881;48.092;11.574;2022-07-09T06:38:15;96434.00;;;15.96;100.00
27429;BME280;14881;48.092;11.574;2022-07-09T06:40:43;96434.00;;;15.96;100.00
27429;BME280;14881;48.092;11.574;2022-07-09T06:43:11;96430.56;;;15.90;100.00
27429;BME280;14881;48.092;11.574;2022-07-09T06:45:39;96436.28;;;16.08;100.00
27429;BME280;14881;48.092;11.574;2022-07-09T06:48:08;96428.16;;;16.16;100.00
27429;BME280;14881;48.092;11.574;2022-07-09T06:50:36;96428.81;;;16.27;100.00
27429;BME280;14881;48.092;11.574;2022-07-09T06:53:04;96428.47;;;16.28;100.00
27429;BME280;14881;48.092;11.574;2022-07-09T06:55:32;96424.13;;;16.41;100.00
27429;BME280;14881;48.092;11.574;2022-07-09T06:57:59;96428.09;;;16.49;100.00
27429;BME280;14881;48.092;11.574;2022-07-09T07:00:27;96429.03;;;16.72;100.00
27429;BME280;14881;48.092;11.574;2022-07-09T07:02:55;96427.28;;;16.62;100.00
27429;BME280;14881;48.092;11.574;2022-07-09T07:05:27;96422.00;;;16.65;100.00
27429;BME280;14881;48.092;11.574;2022-07-09T07:07:55;96422.03;;;16.79;100.00
27429;BME280;14881;48.092;11.574;2022-07-09T07:10:23;96427.69;;;16.83;100.00
27429;BME280;14881;48.092;11.574;2022-07-09T07:12:51;96428.50;;;16.83;100.00
27429;BME280;14881;48.092;11.574;2022-07-09T07:15:21;96438.00;;;16.77;100.00
27429;BME280;14881;48.092;11.574;2022-07-09T07:17:49;96432.09;;;16.70;100.00
27429;BME280;14881;48.092;11.574;2022-07-09T07:20:24;96431.88;;;16.66;100.00
27429;BME280;14881;48.092;11.574;2022-07-09T07:22:53;96434.53;;;16.72;100.00
27429;BME280;14881;48.092;11.574;2022-07-09T07:25:21;96422.63;;;16.76;100.00
27429;BME280;14881;48.092;11.574;2022-07-09T07:27:49;96425.19;;;16.73;100.00
27429;BME280;14881;48.092;11.574;2022-07-09T07:30:17;96426.06;;;16.82;100.00
27429;BME280;14881;48.092;11.574;2022-07-09T07:32:45;96424.84;;;16.88;100.00
27429;BME280;14881;48.092;11.574;2022-07-09T07:35:12;96426.19;;;16.90;100.00
27429;BME280;14881;48.092;11.574;2022-07-09T07:37:40;96423.34;;;16.95;100.00
27429;BME280;14881;48.092;11.574;2022-07-09T07:40:11;96419.22;;;17.07;100.00
27429;BME280;14881;48.092;11.574;2022-07-09T07:42:39;96418.94;;;17.08;100.00
27429;BME280;14881;48.092;11.574;2022-07-09T07:45:08;96415.53;;;17.25;100.00
27429;BME280;14881;48.092;11.574;2022-07-09T07:47:35;96417.00;;;17.45;100.00
27429;BME280;14881;48.092;11.574;2022-07-09T07:50:04;96414.38;;;17.62;100.00
27429;BME280;14881;48.092;11.574;2022-07-09T07:52:32;96407.41;;;17.78;100.00
27429;BME280;14881;48.092;11.574;2022-07-09T07:55:00;96413.56;;;17.84;100.00
27429;BME280;14881;48.092;11.574;2022-07-09T07:57:29;96402.59;;;17.84;100.00
27429;BME280;14881;48.092;11.574;2022-07-09T07:59:57;96404.28;;;17.93;100.00
27429;BME280;14881;48.092;11.574;2022-07-09T08:02:25;96412.09;;;17.78;100.00
27429;BME280;14881;48.092;11.574;2022-07-09T08:04:53;96401.66;;;17.88;100.00
27429;BME280;14881;48.092;11.574;2022-07-09T08:07:20;96403.91;;;17.86;100.00
27429;BME280;14881;48.092;11.574;2022-07-09T08:09:48;96405.59;;;17.96;100.00
27429;BME280;14881;48.092;11.574;2022-07-09T08:12:16;96407.81;;;18.16;100.00
27429;BME280;14881;48.092;11.574;2022-07-09T08:14:45;96403.34;;;18.29;100.00
27429;BME280;14881;48.092;11.574;2022-07-09T08:17:13;96407.72;;;18.30;100.00
27429;BME280;14881;48.092;11.574;2022-07-09T08:19:41;96401.22;;;18.26;100.00
27429;BME280;14881;48.092;11.574;2022-07-09T08:22:09;96410.97;;;18.32;100.00
27429;BME280;14881;48.092;11.574;2022-07-09T08:24:36;96407.66;;;18.52;100.00
27429;BME280;14881;48.092;11.574;2022-07-09T08:27:04;96392.00;;;18.61;100.00
27429;BME280;14881;48.092;11.574;2022-07-09T08:29:32;96391.78;;;18.58;100.00
27429;BME280;14881;48.092;11.574;2022-07-09T08:32:01;96394.38;;;19.02;100.00
27429;BME280;14881;48.092;11.574;2022-07-09T08:34:30;96389.72;;;19.37;100.00
27429;BME280;14881;48.092;11.574;2022-07-09T08:36:58;96391.00;;;19.57;100.00
27429;BME280;14881;48.092;11.574;2022-07-09T08:39:26;96385.69;;;19.69;100.00
27429;BME280;14881;48.092;11.574;2022-07-09T08:41:54;96395.72;;;19.74;97.02
27429;BME280;14881;48.092;11.574;2022-07-09T08:44:24;96390.88;;;19.71;97.15
27429;BME280;14881;48.092;11.574;2022-07-09T08:46:54;96382.56;;;19.79;96.25
27429;BME280;14881;48.092;11.574;2022-07-09T08:49:27;96384.03;;;19.60;98.21
27429;BME280;14881;48.092;11.574;2022-07-09T08:51:55;96388.59;;;19.56;100.00
27429;BME280;14881;48.092;11.574;2022-07-09T08:54:23;96374.81;;;19.56;94.84
27429;BME280;14881;48.092;11.574;2022-07-09T08:56:51;96377.09;;;19.54;89.47
27429;BME280;14881;48.092;11.574;2022-07-09T08:59:19;96376.41;;;19.65;89.07
27429;BME280;14881;48.092;11.574;2022-07-09T09:01:47;96374.28;;;19.45;86.47
27429;BME280;14881;48.092;11.574;2022-07-09T09:04:15;96373.00;;;19.60;87.28
27429;BME280;14881;48.092;11.574;2022-07-09T09:06:44;96372.84;;;19.47;82.80
27429;BME280;14881;48.092;11.574;2022-07-09T09:09:18;96363.94;;;19.59;86.55
27429;BME280;14881;48.092;11.574;2022-07-09T09:11:47;96363.13;;;19.59;86.17
27429;BME280;14881;48.092;11.574;2022-07-09T09:14:20;96362.28;;;19.84;88.15
27429;BME280;14881;48.092;11.574;2022-07-09T09:16:48;96357.66;;;20.14;83.08
27429;BME280;14881;48.092;11.574;2022-07-09T09:19:17;96358.75;;;20.39;80.89
27429;BME280;14881;48.092;11.574;2022-07-09T09:21:49;96350.22;;;20.53;81.66
27429;BME280;14881;48.092;11.574;2022-07-09T09:24:22;96344.69;;;20.53;74.20
27429;BME280;14881;48.092;11.574;2022-07-09T09:26:51;96341.50;;;20.71;77.50
27429;BME280;14881;48.092;11.574;2022-07-09T09:29:19;96340.13;;;20.57;74.17
27429;BME280;14881;48.092;11.574;2022-07-09T09:31:46;96342.97;;;20.31;73.26
27429;BME280;14881;48.092;11.574;2022-07-09T09:34:15;96334.97;;;20.46;73.49
27429;BME280;14881;48.092;11.574;2022-07-09T09:36:46;96332.81;;;20.14;70.83
27429;BME280;14881;48.092;11.574;2022-07-09T09:39:16;96333.13;;;20.21;70.56
27429;BME280;14881;48.092;11.574;2022-07-09T09:41:45;96341.41;;;20.21;72.47
27429;BME280;14881;48.092;11.574;2022-07-09T09:44:15;96332.81;;;20.14;73.41
27429;BME280;14881;48.092;11.574;2022-07-09T09:46:43;96334.56;;;20.65;77.02
27429;BME280;14881;48.092;11.574;2022-07-09T09:49:13;96331.91;;;20.98;73.29
27429;BME280;14881;48.092;11.574;2022-07-09T09:51:47;96335.47;;;21.28;70.66
27429;BME280;14881;48.092;11.574;2022-07-09T09:54:16;96334.34;;;21.00;67.01
27429;BME280;14881;48.092;11.574;2022-07-09T09:56:45;96326.38;;;21.19;66.98
27429;BME280;14881;48.092;11.574;2022-07-09T09:59:14;96327.41;;;21.35;66.13
27429;BME280;14881;48.092;11.574;2022-07-09T10:01:43;96324.91;;;21.63;68.86
27429;BME280;14881;48.092;11.574;2022-07-09T10:04:12;96318.00;;;22.02;62.28
27429;BME280;14881;48.092;11.574;2022-07-09T10:06:41;96314.22;;;22.19;61.57
27429;BME280;14881;48.092;11.574;2022-07-09T10:09:13;96309.16;;;22.33;64.31
27429;BME280;14881;48.092;11.574;2022-07-09T10:11:42;96315.34;;;22.18;61.33
27429;BME280;14881;48.092;11.574;2022-07-09T10:14:18;96302.81;;;22.33;62.25
27429;BME280;14881;48.092;11.574;2022-07-09T10:17:08;96303.25;;;22.10;64.62
27429;BME280;14881;48.092;11.574;2022-07-09T10:19:36;96305.91;;;21.74;62.11
27429;BME280;14881;48.092;11.574;2022-07-09T10:22:04;96310.63;;;21.40;62.74
27429;BME280;14881;48.092;11.574;2022-07-09T10:24:34;96314.53;;;21.18;62.89
27429;BME280;14881;48.092;11.574;2022-07-09T10:27:03;96312.41;;;21.24;66.03
27429;BME280;14881;48.092;11.574;2022-07-09T10:29:32;96307.22;;;21.23;61.88
27429;BME280;14881;48.092;11.574;2022-07-09T10:32:01;96309.16;;;21.43;63.60
27429;BME280;14881;48.092;11.574;2022-07-09T10:34:42;96318.91;;;21.61;62.72
27429;BME280;14881;48.092;11.574;2022-07-09T10:37:11;96309.56;;;21.66;63.72
27429;BME280;14881;48.092;11.574;2022-07-09T10:39:40;96306.41;;;21.55;61.00
27429;BME280;14881;48.092;11.574;2022-07-09T10:42:17;96318.66;;;21.66;62.20
27429;BME280;14881;48.092;11.574;2022-07-09T10:44:46;96313.88;;;21.22;62.04
27429;BME280;14881;48.092;11.574;2022-07-09T10:47:16;96312.88;;;20.97;63.00
27429;BME280;14881;48.092;11.574;2022-07-09T10:49:44;96309.00;;;21.18;66.84
27429;BME280;14881;48.092;11.574;2022-07-09T10:52:12;96307.41;;;21.38;63.58
27429;BME280;14881;48.092;11.574;2022-07-09T10:54:48;96299.63;;;21.98;65.31
27429;BME280;14881;48.092;11.574;2022-07-09T10:57:16;96292.22;;;21.89;62.57
27429;BME280;14881;48.092;11.574;2022-07-09T10:59:47;96293.66;;;21.63;63.89
27429;BME280;14881;48.092;11.574;2022-07-09T11:02:18;96293.47;;;22.13;67.65
27429;BME280;14881;48.092;11.574;2022-07-09T11:04:50;96291.28;;;22.79;62.96
27429;BME280;14881;48.092;11.574;2022-07-09T11:07:19;96284.00;;;23.27;59.89
27429;BME280;14881;48.092;11.574;2022-07-09T11:09:50;96297.25;;;22.57;57.10
27429;BME280;14881;48.092;11.574;2022-07-09T11:12:18;96286.47;;;23.44;57.49
27429;BME280;14881;48.092;11.574;2022-07-09T11:14:48;96297.44;;;23.81;58.83
27429;BME280;14881;48.092;11.574;2022-07-09T11:17:16;96280.50;;;23.70;54.09
27429;BME280;14881;48.092;11.574;2022-07-09T11:19:45;96273.03;;;24.18;56.79
27429;BME280;14881;48.092;11.574;2022-07-09T11:22:13;96263.78;;;24.45;56.14
27429;BME280;14881;48.092;11.574;2022-07-09T11:24:40;96265.25;;;24.39;53.53
27429;BME280;14881;48.092;11.574;2022-07-09T11:27:10;96267.53;;;23.90;51.58
27429;BME280;14881;48.092;11.574;2022-07-09T11:29:37;96270.91;;;23.68;51.31
27429;BME280;14881;48.092;11.574;2022-07-09T11:32:05;96268.28;;;23.31;54.56
27429;BME280;14881;48.092;11.574;2022-07-09T11:34:33;96271.78;;;23.16;54.68
27429;BME280;14881;48.092;11.574;2022-07-09T11:37:01;96261.00;;;22.86;53.78
27429;BME280;14881;48.092;11.574;2022-07-09T11:39:32;96261.16;;;22.78;52.37
27429;BME280;14881;48.092;11.574;2022-07-09T11:42:01;96258.72;;;22.52;53.94
27429;BME280;14881;48.092;11.574;2022-07-09T11:44:32;96263.25;;;22.32;54.10
27429;BME280;14881;48.092;11.574;2022-07-09T11:47:02;96262.63;;;22.63;55.94
27429;BME280;14881;48.092;11.574;2022-07-09T11:49:35;96254.22;;;22.60;55.35
27429;BME280;14881;48.092;11.574;2022-07-09T11:52:04;96259.03;;;22.75;56.07
27429;BME280;14881;48.092;11.574;2022-07-09T11:54:32;96252.16;;;22.44;53.19
27429;BME280;14881;48.092;11.574;2022-07-09T11:57:00;96243.72;;;22.65;55.46
27429;BME280;14881;48.092;11.574;2022-07-09T11:59:28;96244.91;;;23.04;58.14
27429;BME280;14881;48.092;11.574;2022-07-09T12:02:00;96238.41;;;23.68;54.06
27429;BME280;14881;48.092;11.574;2022-07-09T12:04:30;96232.78;;;24.12;49.83
27429;BME280;14881;48.092;11.574;2022-07-09T12:06:58;96227.69;;;24.29;51.15
27429;BME280;14881;48.092;11.574;2022-07-09T12:09:29;96225.19;;;24.40;51.28
27429;BME280;14881;48.092;11.574;2022-07-09T12:11:58;96228.84;;;24.44;51.08
27429;BME280;14881;48.092;11.574;2022-07-09T12:14:26;96227.59;;;24.10;52.67
27429;BME280;14881;48.092;11.574;2022-07-09T12:16:55;96221.59;;;23.92;53.00
27429;BME280;14881;48.092;11.574;2022-07-09T12:19:25;96223.56;;;23.20;51.02
27429;BME280;14881;48.092;11.574;2022-07-09T12:21:53;96227.75;;;23.42;54.93
27429;BME280;14881;48.092;11.574;2022-07-09T12:24:25;96219.03;;;23.56;55.01
27429;BME280;14881;48.092;11.574;2022-07-09T12:26:52;96215.81;;;23.26;52.52
27429;BME280;14881;48.092;11.574;2022-07-09T12:29:40;96214.19;;;23.25;55.67
27429;BME280;14881;48.092;11.574;2022-07-09T12:32:08;96210.63;;;22.97;52.72
27429;BME280;14881;48.092;11.574;2022-07-09T12:34:37;96213.31;;;22.69;52.45
27429;BME280;14881;48.092;11.574;2022-07-09T12:37:06;96202.72;;;22.83;51.94
27429;BME280;14881;48.092;11.574;2022-07-09T12:39:34;96195.28;;;22.87;53.05
27429;BME280;14881;48.092;11.574;2022-07-09T12:42:02;96200.19;;;22.78;52.70
27429;BME280;14881;48.092;11.574;2022-07-09T12:44:30;96199.38;;;23.05;55.58
27429;BME280;14881;48.092;11.574;2022-07-09T12:46:57;96192.72;;;23.22;57.17
27429;BME280;14881;48.092;11.574;2022-07-09T12:49:25;96187.66;;;23.40;56.68